createdAt,value
2022-08-20T00:01:49.408Z,18.50
2022-08-20T00:04:17.955Z,18.40
2022-08-20T00:06:46.387Z,18.40
2022-08-20T00:09:14.868Z,18.40
2022-08-20T00:11:45.488Z,18.40
2022-08-20T00:14:13.680Z,18.40
2022-08-20T00:16:43.273Z,18.40
2022-08-20T00:19:12.668Z,18.40
2022-08-20T00:21:40.651Z,18.40
2022-08-20T00:24:10.278Z,18.40
2022-08-20T00:26:38.394Z,18.40
2022-08-20T00:29:20.603Z,18.40
2022-08-20T00:31:52.460Z,18.40
2022-08-20T00:34:20.951Z,18.40
2022-08-20T00:36:48.996Z,18.40
2022-08-20T00:39:17.027Z,18.50
2022-08-20T00:41:45.857Z,18.50
2022-08-20T00:44:16.888Z,18.50
2022-08-20T00:46:47.164Z,18.50
2022-08-20T00:49:22.040Z,18.50
2022-08-20T00:51:54.717Z,18.50
2022-08-20T00:54:27.870Z,18.50
2022-08-20T00:56:59.325Z,18.50
2022-08-20T00:59:30.766Z,18.40
2022-08-20T01:02:01.448Z,18.40
2022-08-20T01:04:33.624Z,18.40
2022-08-20T01:07:05.282Z,18.40
2022-08-20T01:09:58.423Z,18.50
2022-08-20T01:12:23.608Z,18.50
2022-08-20T01:14:52.804Z,18.60
2022-08-20T01:17:25.253Z,18.50
2022-08-20T01:19:59.006Z,18.50
2022-08-20T01:22:50.744Z,18.50
2022-08-20T01:25:26.372Z,18.40
2022-08-20T01:27:57.319Z,18.40
2022-08-20T01:30:29.969Z,18.30
2022-08-20T01:32:58.713Z,18.30
2022-08-20T01:35:27.511Z,18.30
2022-08-20T01:37:56.203Z,18.30
2022-08-20T01:40:39.721Z,18.30
2022-08-20T01:43:09.721Z,18.20
2022-08-20T01:45:40.197Z,18.20
2022-08-20T01:48:09.589Z,18.20
2022-08-20T01:50:40.071Z,18.20
2022-08-20T01:53:16.432Z,18.30
2022-08-20T01:55:44.838Z,18.20
2022-08-20T01:58:14.757Z,18.20
2022-08-20T02:00:43.096Z,18.20
2022-08-20T02:03:11.224Z,18.20
2022-08-20T02:05:39.285Z,18.10
2022-08-20T02:08:07.454Z,18.10
2022-08-20T02:10:36.527Z,18.10
2022-08-20T02:13:07.601Z,18.00
2022-08-20T02:15:39.815Z,17.90
2022-08-20T02:18:13.117Z,17.90
2022-08-20T02:20:43.091Z,17.90
2022-08-20T02:23:12.994Z,17.80
2022-08-20T02:25:44.606Z,17.80
2022-08-20T02:28:15.538Z,17.80
2022-08-20T02:30:47.957Z,17.80
2022-08-20T02:33:18.606Z,17.70
2022-08-20T02:35:49.862Z,17.70
2022-08-20T02:38:18.208Z,17.60
2022-08-20T02:40:49.092Z,17.60
2022-08-20T02:43:18.312Z,17.60
2022-08-20T02:45:47.773Z,17.60
2022-08-20T02:48:22.920Z,17.50
2022-08-20T02:50:54.115Z,17.50
2022-08-20T02:53:22.592Z,17.40
2022-08-20T02:55:50.960Z,17.40
2022-08-20T02:58:20.070Z,17.30
2022-08-20T03:00:50.442Z,17.20
2022-08-20T03:03:22.549Z,17.10
2022-08-20T03:05:53.296Z,17.10
2022-08-20T03:08:22.595Z,17.00
2022-08-20T03:10:52.332Z,16.90
2022-08-20T03:13:22.742Z,16.80
2022-08-20T03:15:58.839Z,16.80
2022-08-20T03:18:30.883Z,16.70
2022-08-20T03:20:58.973Z,16.70
2022-08-20T03:23:27.337Z,16.80
2022-08-20T03:25:55.665Z,16.80
2022-08-20T03:28:23.993Z,16.90
2022-08-20T03:30:54.746Z,16.90
2022-08-20T03:33:24.132Z,17.00
2022-08-20T03:35:52.407Z,16.90
2022-08-20T03:38:32.542Z,17.00
2022-08-20T03:41:02.445Z,16.90
2022-08-20T03:43:31.316Z,16.90
2022-08-20T03:46:01.194Z,16.90
2022-08-20T03:48:29.654Z,16.80
2022-08-20T03:51:00.709Z,16.80
2022-08-20T03:53:31.713Z,16.80
2022-08-20T03:56:03.273Z,16.70
2022-08-20T03:58:35.024Z,16.70
2022-08-20T04:01:07.658Z,16.60
2022-08-20T04:03:41.201Z,16.70
2022-08-20T04:06:09.267Z,16.60
2022-08-20T04:08:38.862Z,16.60
2022-08-20T04:11:07.245Z,16.60
2022-08-20T04:13:37.994Z,16.60
2022-08-20T04:16:13.365Z,16.60
2022-08-20T04:18:43.418Z,16.50
2022-08-20T04:21:31.044Z,16.50
2022-08-20T04:24:01.466Z,16.50
2022-08-20T04:26:29.642Z,16.50
2022-08-20T04:28:57.720Z,16.50
2022-08-20T04:31:33.908Z,16.50
2022-08-20T04:34:02.789Z,16.40
2022-08-20T04:36:30.929Z,16.50
2022-08-20T04:38:59.030Z,16.50
2022-08-20T04:41:26.164Z,16.50
2022-08-20T04:43:55.854Z,16.50
2022-08-20T04:46:28.770Z,16.60
2022-08-20T04:48:57.857Z,16.60
2022-08-20T04:51:26.866Z,16.60
2022-08-20T04:53:57.269Z,16.70
2022-08-20T04:56:28.290Z,16.70
2022-08-20T04:58:59.676Z,16.80
2022-08-20T05:01:29.712Z,16.80
2022-08-20T05:04:00.176Z,16.90
2022-08-20T05:06:31.702Z,16.90
2022-08-20T05:09:01.129Z,16.90
2022-08-20T05:11:33.914Z,17.00
2022-08-20T05:14:05.933Z,17.10
2022-08-20T05:16:41.078Z,17.10
2022-08-20T05:19:11.406Z,17.20
2022-08-20T05:21:40.115Z,17.30
2022-08-20T05:24:10.090Z,17.40
2022-08-20T05:26:38.183Z,17.50
2022-08-20T05:29:06.872Z,17.60
2022-08-20T05:31:35.619Z,17.70
2022-08-20T05:34:09.571Z,17.80
2022-08-20T05:36:40.018Z,17.90
2022-08-20T05:39:08.819Z,18.00
2022-08-20T05:41:37.761Z,18.00
2022-08-20T05:44:09.833Z,18.20
2022-08-20T05:46:40.366Z,18.30
2022-08-20T05:49:10.098Z,18.40
2022-08-20T05:51:38.321Z,18.50
2022-08-20T05:54:07.275Z,18.60
2022-08-20T05:56:38.611Z,18.80
2022-08-20T05:59:08.165Z,19.00
2022-08-20T06:01:38.928Z,19.10
2022-08-20T06:04:25.018Z,19.20
2022-08-20T06:06:56.313Z,19.20
2022-08-20T06:09:31.017Z,19.30
2022-08-20T06:12:01.262Z,19.40
2022-08-20T06:14:29.519Z,19.50
2022-08-20T06:17:04.004Z,19.60
2022-08-20T06:19:33.339Z,19.70
2022-08-20T06:22:08.606Z,19.80
2022-08-20T06:24:47.802Z,19.80
2022-08-20T06:27:17.002Z,20.00
2022-08-20T06:29:45.345Z,20.00
2022-08-20T06:32:14.083Z,20.20
2022-08-20T06:34:50.164Z,20.20
2022-08-20T06:37:27.451Z,20.40
2022-08-20T06:40:04.227Z,20.40
2022-08-20T06:42:32.597Z,20.50
2022-08-20T06:45:03.217Z,20.60
2022-08-20T06:47:31.359Z,20.50
2022-08-20T06:49:59.497Z,20.60
2022-08-20T06:52:51.764Z,20.60
2022-08-20T06:55:17.495Z,20.60
2022-08-20T06:57:47.343Z,20.70
2022-08-20T07:00:18.250Z,20.80
2022-08-20T07:02:48.034Z,20.80
2022-08-20T07:05:16.621Z,20.90
2022-08-20T07:07:49.403Z,20.90
2022-08-20T07:10:19.604Z,21.00
2022-08-20T07:12:51.028Z,21.10
2022-08-20T07:15:21.008Z,21.30
2022-08-20T07:17:53.527Z,21.50
2022-08-20T07:20:23.596Z,21.40
2022-08-20T07:22:53.129Z,21.40
2022-08-20T07:25:22.514Z,21.40
2022-08-20T07:27:52.039Z,21.30
2022-08-20T07:30:56.767Z,21.30
2022-08-20T07:33:26.271Z,21.40
2022-08-20T07:35:56.485Z,21.50
2022-08-20T07:38:27.858Z,21.50
2022-08-20T07:40:57.529Z,21.50
2022-08-20T07:43:25.951Z,21.40
2022-08-20T07:45:57.181Z,21.40
2022-08-20T07:48:32.053Z,21.30
2022-08-20T07:51:03.602Z,21.30
2022-08-20T07:53:35.838Z,21.30
2022-08-20T07:56:06.421Z,21.30
2022-08-20T07:58:37.135Z,21.20
2022-08-20T08:01:06.165Z,21.20
2022-08-20T08:03:39.951Z,21.20
2022-08-20T08:06:29.046Z,21.10
2022-08-20T08:09:02.949Z,21.10
2022-08-20T08:11:32.350Z,21.00
2022-08-20T08:14:00.667Z,21.10
2022-08-20T08:16:31.032Z,21.10
2022-08-20T08:19:01.263Z,21.00
2022-08-20T08:21:29.961Z,21.00
2022-08-20T08:23:59.719Z,20.80
2022-08-20T08:26:29.045Z,20.70
2022-08-20T08:28:58.027Z,20.70
2022-08-20T08:31:26.655Z,20.80
2022-08-20T08:33:55.244Z,20.80
2022-08-20T08:36:23.397Z,20.80
2022-08-20T08:38:51.435Z,20.80
2022-08-20T08:41:26.069Z,20.80
2022-08-20T08:43:55.905Z,20.80
2022-08-20T08:46:27.386Z,20.80
2022-08-20T08:49:01.516Z,20.90
2022-08-20T08:51:34.909Z,20.90
2022-08-20T08:54:06.909Z,20.80
2022-08-20T08:56:37.352Z,20.80
2022-08-20T08:59:08.773Z,20.70
2022-08-20T09:01:53.839Z,20.60
2022-08-20T09:04:29.101Z,20.60
2022-08-20T09:06:57.417Z,20.50
2022-08-20T09:09:29.045Z,20.50
2022-08-20T09:12:05.327Z,20.50
2022-08-20T09:14:33.925Z,20.40
2022-08-20T09:17:01.994Z,20.40
2022-08-20T09:19:30.094Z,20.50
2022-08-20T09:21:58.323Z,20.50
2022-08-20T09:24:26.539Z,20.50
2022-08-20T09:26:54.589Z,20.50
2022-08-20T09:29:23.983Z,20.50
2022-08-20T09:31:51.834Z,20.50
2022-08-20T09:34:20.616Z,20.50
2022-08-20T09:36:48.616Z,20.50
2022-08-20T09:39:16.650Z,20.60
2022-08-20T09:41:44.730Z,20.70
2022-08-20T09:44:12.785Z,20.80
2022-08-20T09:46:42.192Z,20.80
2022-08-20T09:49:10.385Z,20.80
2022-08-20T09:51:39.292Z,20.70
2022-08-20T09:54:07.689Z,20.70
2022-08-20T09:56:36.704Z,20.70
2022-08-20T09:59:05.054Z,20.70
2022-08-20T10:01:34.276Z,20.70
2022-08-20T10:04:03.944Z,20.70
2022-08-20T10:06:37.151Z,20.70
2022-08-20T10:09:06.008Z,20.70
2022-08-20T10:11:34.256Z,20.70
2022-08-20T10:14:02.285Z,20.60
2022-08-20T10:16:30.340Z,20.60
2022-08-20T10:18:58.782Z,20.60
2022-08-20T10:21:28.191Z,20.60
2022-08-20T10:23:56.037Z,20.60
2022-08-20T10:26:24.066Z,20.50
2022-08-20T10:28:53.272Z,20.50
2022-08-20T10:31:21.525Z,20.50
2022-08-20T10:33:49.598Z,20.40
2022-08-20T10:36:18.940Z,20.40
2022-08-20T10:38:49.039Z,20.50
2022-08-20T10:41:17.297Z,20.50
2022-08-20T10:43:45.309Z,20.60
2022-08-20T10:46:13.683Z,20.60
2022-08-20T10:48:41.825Z,20.60
2022-08-20T10:51:10.091Z,20.60
2022-08-20T10:53:40.639Z,20.60
2022-08-20T10:56:13.741Z,20.60
2022-08-20T10:58:43.666Z,20.50
2022-08-20T11:01:12.766Z,20.50
2022-08-20T11:03:59.733Z,20.40
2022-08-20T11:06:27.747Z,20.40
2022-08-20T11:08:56.905Z,20.30
2022-08-20T11:11:26.384Z,20.30
2022-08-20T11:13:54.407Z,20.30
2022-08-20T11:16:22.839Z,20.30
2022-08-20T11:18:50.950Z,20.20
2022-08-20T11:21:19.247Z,20.20
2022-08-20T11:23:47.313Z,20.20
2022-08-20T11:26:21.671Z,20.20
2022-08-20T11:28:51.192Z,20.10
2022-08-20T11:31:19.264Z,20.00
2022-08-20T11:33:47.304Z,20.00
2022-08-20T11:36:15.322Z,20.00
2022-08-20T11:38:43.712Z,19.90
2022-08-20T11:41:11.748Z,19.80
2022-08-20T11:43:39.963Z,19.70
2022-08-20T11:46:09.419Z,19.70
2022-08-20T11:48:37.344Z,19.60
2022-08-20T11:51:05.715Z,19.50
2022-08-20T11:53:33.820Z,19.40
2022-08-20T11:56:03.897Z,19.30
2022-08-20T11:58:32.728Z,19.30
2022-08-20T12:01:00.868Z,19.30
2022-08-20T12:03:30.975Z,19.20
2022-08-20T12:05:59.011Z,19.20
2022-08-20T12:08:28.224Z,19.10
2022-08-20T12:10:58.170Z,19.10
2022-08-20T12:13:38.863Z,19.00
2022-08-20T12:16:15.310Z,19.00
2022-08-20T12:18:44.740Z,18.90
2022-08-20T12:21:12.889Z,18.90
2022-08-20T12:23:40.975Z,18.90
2022-08-20T12:26:09.110Z,18.90
2022-08-20T12:28:37.232Z,18.80
2022-08-20T12:31:05.392Z,18.80
2022-08-20T12:33:33.475Z,18.80
2022-08-20T12:36:03.060Z,18.70
2022-08-20T12:38:31.094Z,18.70
2022-08-20T12:40:59.199Z,18.70
2022-08-20T12:43:27.324Z,18.70
2022-08-20T12:45:55.413Z,18.60
2022-08-20T12:48:23.485Z,18.60
2022-08-20T12:50:52.661Z,18.60
2022-08-20T12:53:22.176Z,18.60
2022-08-20T12:55:50.247Z,18.60
2022-08-20T12:58:19.264Z,18.60
2022-08-20T13:00:48.687Z,18.60
2022-08-20T13:03:19.576Z,18.50
2022-08-20T13:05:47.623Z,18.50
2022-08-20T13:08:17.581Z,18.50
2022-08-20T13:10:47.526Z,18.50
2022-08-20T13:13:17.476Z,18.50
2022-08-20T13:15:51.389Z,18.60
2022-08-20T13:18:20.828Z,18.60
2022-08-20T13:20:49.179Z,18.60
2022-08-20T13:23:17.754Z,18.60
2022-08-20T13:25:47.416Z,18.60
2022-08-20T13:28:15.486Z,18.50
2022-08-20T13:30:43.512Z,18.60
2022-08-20T13:33:11.591Z,18.60
2022-08-20T13:35:39.737Z,18.60
2022-08-20T13:38:08.177Z,18.60
2022-08-20T13:40:36.303Z,18.60
2022-08-20T13:43:07.442Z,18.60
2022-08-20T13:45:40.700Z,18.60
2022-08-20T13:48:10.110Z,18.70
2022-08-20T13:50:43.293Z,18.80
2022-08-20T13:53:15.408Z,18.80
2022-08-20T13:55:43.505Z,18.70
2022-08-20T13:58:14.216Z,18.80
2022-08-20T14:00:42.565Z,18.70
2022-08-20T14:03:10.633Z,18.70
2022-08-20T14:05:39.406Z,18.70
2022-08-20T14:08:09.605Z,18.70
2022-08-20T14:10:38.667Z,18.80
2022-08-20T14:13:08.374Z,18.70
2022-08-20T14:15:39.416Z,18.60
2022-08-20T14:18:07.450Z,18.50
2022-08-20T14:20:35.943Z,18.50
2022-08-20T14:23:07.067Z,18.50
2022-08-20T14:25:35.446Z,18.50
2022-08-20T14:28:11.813Z,18.50
2022-08-20T14:30:41.625Z,18.50
2022-08-20T14:33:10.403Z,18.50
2022-08-20T14:35:38.975Z,18.50
2022-08-20T14:38:07.756Z,18.40
2022-08-20T14:40:36.700Z,18.40
2022-08-20T14:43:05.041Z,18.40
2022-08-20T14:45:33.292Z,18.40
2022-08-20T14:48:02.745Z,18.40
2022-08-20T14:50:31.597Z,18.30
2022-08-20T14:52:59.808Z,18.30
2022-08-20T14:55:34.001Z,18.20
2022-08-20T14:58:02.111Z,18.20
2022-08-20T15:00:33.880Z,18.20
2022-08-20T15:03:03.344Z,18.10
2022-08-20T15:05:31.435Z,18.10
2022-08-20T15:07:59.606Z,18.10
2022-08-20T15:10:30.701Z,18.00
2022-08-20T15:12:59.525Z,18.00
2022-08-20T15:15:28.168Z,18.00
2022-08-20T15:18:00.026Z,17.90
2022-08-20T15:20:31.338Z,17.90
2022-08-20T15:23:00.301Z,17.90
2022-08-20T15:25:36.146Z,17.80
2022-08-20T15:28:08.181Z,17.80
2022-08-20T15:30:37.499Z,17.80
2022-08-20T15:33:05.799Z,17.80
2022-08-20T15:35:35.535Z,17.80
2022-08-20T15:38:03.646Z,17.70
2022-08-20T15:40:33.556Z,17.70
2022-08-20T15:43:03.889Z,17.70
2022-08-20T15:45:32.031Z,17.70
2022-08-20T15:48:07.639Z,17.60
2022-08-20T15:50:55.124Z,17.60
2022-08-20T15:53:28.936Z,17.60
2022-08-20T15:56:05.233Z,17.60
2022-08-20T15:58:39.509Z,17.60
2022-08-20T16:01:25.241Z,17.50
2022-08-20T16:04:26.305Z,17.50
2022-08-20T16:07:01.484Z,17.50
2022-08-20T16:09:44.946Z,17.40
2022-08-20T16:12:18.407Z,17.30
2022-08-20T16:14:50.512Z,17.30
2022-08-20T16:17:25.904Z,17.30
2022-08-20T16:20:02.070Z,17.30
2022-08-20T16:22:32.789Z,17.20
2022-08-20T16:25:00.899Z,17.20
2022-08-20T16:27:36.545Z,17.20
2022-08-20T16:30:09.374Z,17.20
2022-08-20T16:32:43.380Z,17.10
2022-08-20T16:35:33.991Z,17.10
2022-08-20T16:38:20.936Z,17.10
2022-08-20T16:40:55.162Z,17.10
2022-08-20T16:43:27.233Z,17.00
2022-08-20T16:46:01.269Z,17.00
2022-08-20T16:48:36.476Z,16.90
2022-08-20T16:51:08.203Z,17.00
2022-08-20T16:53:37.668Z,17.00
2022-08-20T16:56:06.360Z,16.90
2022-08-20T16:58:34.527Z,17.00
2022-08-20T17:01:08.467Z,16.90
2022-08-20T17:03:40.543Z,16.90
2022-08-20T17:06:19.346Z,16.80
2022-08-20T17:08:51.223Z,16.80
2022-08-20T17:11:26.358Z,16.80
2022-08-20T17:14:05.588Z,16.80
2022-08-20T17:16:35.791Z,16.80
2022-08-20T17:19:14.740Z,16.80
2022-08-20T17:21:43.904Z,16.70
2022-08-20T17:24:23.361Z,16.70
2022-08-20T17:26:54.017Z,16.60
2022-08-20T17:29:24.601Z,16.60
2022-08-20T17:31:54.977Z,16.60
2022-08-20T17:34:24.645Z,16.60
2022-08-20T17:36:57.885Z,16.50
2022-08-20T17:39:29.212Z,16.60
2022-08-20T17:42:08.115Z,16.50
2022-08-20T17:44:40.317Z,16.50
2022-08-20T17:47:14.877Z,16.50
2022-08-20T17:50:00.494Z,16.40
2022-08-20T17:52:35.251Z,16.40
2022-08-20T17:55:05.564Z,16.50
2022-08-20T17:57:38.780Z,16.40
2022-08-20T18:00:13.981Z,16.40
2022-08-20T18:02:42.427Z,16.40
2022-08-20T18:05:16.893Z,16.40
2022-08-20T18:07:58.772Z,16.40
2022-08-20T18:10:28.686Z,16.40
2022-08-20T18:13:01.912Z,16.40
2022-08-20T18:15:34.817Z,16.40
2022-08-20T18:18:26.706Z,16.40
2022-08-20T18:21:15.255Z,16.30
2022-08-20T18:23:47.970Z,16.40
2022-08-20T18:26:22.501Z,16.30
2022-08-20T18:28:54.891Z,16.30
2022-08-20T18:31:27.938Z,16.30
2022-08-20T18:33:56.453Z,16.30
2022-08-20T18:36:28.144Z,16.30
2022-08-20T18:39:03.391Z,16.30
2022-08-20T18:41:35.221Z,16.30
2022-08-20T18:44:10.893Z,16.30
2022-08-20T18:46:50.977Z,16.30
2022-08-20T18:49:28.725Z,16.30
2022-08-20T18:51:58.160Z,16.30
2022-08-20T18:54:29.276Z,16.30
2022-08-20T18:57:07.851Z,16.20
2022-08-20T18:59:41.631Z,16.20
2022-08-20T19:02:22.111Z,16.20
2022-08-20T19:05:02.259Z,16.20
2022-08-20T19:07:45.789Z,16.20
2022-08-20T19:10:40.260Z,16.20
2022-08-20T19:13:41.452Z,16.20
2022-08-20T19:16:15.784Z,16.20
2022-08-20T19:18:50.445Z,16.10
2022-08-20T19:21:23.019Z,16.10
2022-08-20T19:23:55.026Z,16.10
2022-08-20T19:26:26.220Z,16.10
2022-08-20T19:28:59.876Z,16.00
2022-08-20T19:31:31.162Z,16.00
2022-08-20T19:34:19.558Z,16.00
2022-08-20T19:36:55.414Z,16.00
2022-08-20T19:39:25.888Z,16.00
2022-08-20T19:41:57.703Z,15.90
2022-08-20T19:44:33.787Z,15.90
2022-08-20T19:47:03.405Z,15.90
2022-08-20T19:49:42.723Z,15.90
2022-08-20T19:52:35.314Z,15.90
2022-08-20T19:55:04.236Z,15.80
2022-08-20T19:57:32.808Z,15.80
2022-08-20T20:00:07.836Z,15.80
2022-08-20T20:02:36.438Z,15.80
2022-08-20T20:05:06.577Z,15.70
2022-08-20T20:07:39.381Z,15.70
2022-08-20T20:10:10.848Z,15.70
2022-08-20T20:12:40.595Z,15.70
2022-08-20T20:15:10.608Z,15.60
2022-08-20T20:17:39.480Z,15.60
2022-08-20T20:20:21.177Z,15.60
2022-08-20T20:22:53.314Z,15.50
2022-08-20T20:25:24.433Z,15.60
2022-08-20T20:27:54.618Z,15.50
2022-08-20T20:30:29.234Z,15.50
2022-08-20T20:32:59.229Z,15.50
2022-08-20T20:35:30.711Z,15.50
2022-08-20T20:38:01.289Z,15.50
2022-08-20T20:40:33.986Z,15.50
2022-08-20T20:43:06.702Z,15.40
2022-08-20T20:45:40.117Z,15.40
2022-08-20T20:48:20.576Z,15.40
2022-08-20T20:50:49.577Z,15.40
2022-08-20T20:53:47.457Z,15.40
2022-08-20T20:56:32.094Z,15.40
2022-08-20T20:59:05.833Z,15.40
2022-08-20T21:01:49.642Z,15.30
2022-08-20T21:04:19.744Z,15.30
2022-08-20T21:06:47.812Z,15.30
2022-08-20T21:09:16.603Z,15.30
2022-08-20T21:11:44.653Z,15.30
2022-08-20T21:14:12.737Z,15.30
2022-08-20T21:16:42.565Z,15.30
2022-08-20T21:19:12.001Z,15.30
2022-08-20T21:21:41.084Z,15.30
2022-08-20T21:24:09.454Z,15.30
2022-08-20T21:26:38.640Z,15.30
2022-08-20T21:29:07.612Z,15.20
2022-08-20T21:31:39.680Z,15.30
2022-08-20T21:34:14.231Z,15.20
2022-08-20T21:36:42.273Z,15.20
2022-08-20T21:39:10.604Z,15.20
2022-08-20T21:41:39.056Z,15.20
2022-08-20T21:44:14.911Z,15.20
2022-08-20T21:46:43.463Z,15.20
2022-08-20T21:49:12.897Z,15.10
2022-08-20T21:51:40.812Z,15.20
2022-08-20T21:54:08.848Z,15.20
2022-08-20T21:56:37.662Z,15.20
2022-08-20T21:59:08.219Z,15.20
2022-08-20T22:01:36.890Z,15.20
2022-08-20T22:04:06.503Z,15.20
2022-08-20T22:06:35.749Z,15.20
2022-08-20T22:09:03.848Z,15.20
2022-08-20T22:11:33.319Z,15.20
2022-08-20T22:14:01.847Z,15.20
2022-08-20T22:16:30.241Z,15.20
2022-08-20T22:18:58.513Z,15.10
2022-08-20T22:21:28.956Z,15.10
2022-08-20T22:24:03.345Z,15.10
2022-08-20T22:26:33.245Z,15.20
2022-08-20T22:29:01.831Z,15.10
2022-08-20T22:31:32.381Z,15.10
2022-08-20T22:34:00.669Z,15.10
2022-08-20T22:36:29.343Z,15.10
2022-08-20T22:38:57.437Z,15.10
2022-08-20T22:41:27.535Z,15.20
2022-08-20T22:43:57.114Z,15.20
2022-08-20T22:46:27.124Z,15.20
2022-08-20T22:48:55.665Z,15.20
2022-08-20T22:51:28.823Z,15.20
2022-08-20T22:53:58.773Z,15.20
2022-08-20T22:56:29.899Z,15.20
2022-08-20T22:58:59.416Z,15.20
2022-08-20T23:01:28.018Z,15.20
2022-08-20T23:03:58.348Z,15.20
2022-08-20T23:06:27.912Z,15.20
2022-08-20T23:08:55.805Z,15.20
2022-08-20T23:11:23.838Z,15.20
2022-08-20T23:13:53.318Z,15.20
2022-08-20T23:16:21.197Z,15.20
2022-08-20T23:18:49.725Z,15.20
2022-08-20T23:21:17.870Z,15.20
2022-08-20T23:23:45.936Z,15.20
2022-08-20T23:26:19.989Z,15.20
2022-08-20T23:28:48.093Z,15.20
2022-08-20T23:31:17.563Z,15.20
2022-08-20T23:33:45.467Z,15.30
2022-08-20T23:36:16.187Z,15.30
2022-08-20T23:38:44.259Z,15.20
2022-08-20T23:41:12.367Z,15.20
2022-08-20T23:43:40.454Z,15.30
2022-08-20T23:46:10.013Z,15.30
2022-08-20T23:48:39.261Z,15.30
2022-08-20T23:51:07.484Z,15.30
2022-08-20T23:53:36.092Z,15.30
2022-08-20T23:56:04.715Z,15.30
2022-08-20T23:58:32.796Z,15.30
